Time,TemperatureF,DewpointF,PressureIn,WindDirection,WindDirectionDegrees,WindSpeedMPH,WindSpeedGustMPH,Humidity,HourlyPrecipIn,Conditions,Clouds,dailyrainin,SolarRadiationWatts/m^2,SoftwareType,DateUTC
2013-08-02 00:01:00,59.1,57.4,29.85,NNW,340,0.0,0.0,94,0.00,FEW,,0.00,0.0,WeatherDisplay:10.37,2013-08-02 05:01:00,
2013-08-02 00:06:00,60.5,58.8,29.86,NNW,340,0.0,0.0,94,0.00,FEW,,0.00,0.0,WeatherDisplay:10.37,2013-08-02 05:06:00,
2013-08-02 00:12:00,58.6,56.9,29.84,NNW,340,0.0,0.0,94,0.00,FEW,,0.00,0.0,WeatherDisplay:10.37,2013-08-02 05:12:00,
2013-08-02 00:17:00,58.5,56.5,29.84,NNW,340,0.0,0.0,93,0.00,FEW,,0.00,0.0,WeatherDisplay:10.37,2013-08-02 05:17:00,
2013-08-02 00:22:00,58.2,56.2,29.84,NNW,340,0.0,0.0,93,0.00,FEW,,0.00,0.0,WeatherDisplay:10.37,2013-08-02 05:22:00,
2013-08-02 00:27:00,60.5,58.8,29.86,NNW,340,0.0,0.0,94,0.00,FEW,,0.00,0.0,WeatherDisplay:10.37,2013-08-02 05:27:00,
2013-08-02 00:32:00,57.6,55.6,29.83,NNW,340,0.0,0.0,93,0.00,FEW,,0.00,0.0,WeatherDisplay:10.37,2013-08-02 05:32:00,
2013-08-02 00:37:00,57.3,55.6,29.83,NNW,340,0.0,0.0,94,0.00,FEW,,0.00,0.0,WeatherDisplay:10.37,2013-08-02 05:37:00,
2013-08-02 00:42:00,57.2,55.5,29.83,NNW,340,0.0,0.0,94,0.00,FEW,,0.00,0.0,WeatherDisplay:10.37,2013-08-02 05:42:00,
2013-08-02 00:47:00,57.0,55.3,29.83,NNW,340,0.0,0.0,94,0.00,FEW,,0.00,0.0,WeatherDisplay:10.37,2013-08-02 05:47:00,
2013-08-02 00:52:00,56.8,55.1,29.83,NNW,340,0.0,0.0,94,0.00,FEW,,0.00,0.0,WeatherDisplay:10.37,2013-08-02 05:52:00,
2013-08-02 00:57:00,56.6,54.9,29.82,NNW,340,0.0,0.0,94,0.00,FEW,,0.00,0.0,WeatherDisplay:10.37,2013-08-02 05:57:00,
2013-08-02 01:02:00,56.5,54.8,29.82,NNW,340,0.0,0.0,94,0.00,,,0.00,0.0,WeatherDisplay:10.37,2013-08-02 06:02:00,
2013-08-02 01:07:00,56.3,54.6,29.82,NNW,340,0.0,0.0,94,0.00,,,0.00,0.0,WeatherDisplay:10.37,2013-08-02 06:07:00,
2013-08-02 01:12:00,56.1,54.4,29.82,NNW,340,0.0,0.0,94,0.00,,,0.00,0.0,WeatherDisplay:10.37,2013-08-02 06:12:00,
2013-08-02 01:17:00,55.9,54.2,29.82,NNW,340,0.0,0.0,94,0.00,,,0.00,0.0,WeatherDisplay:10.37,2013-08-02 06:17:00,
2013-08-02 01:22:00,60.5,58.8,29.86,NNW,340,0.0,0.0,94,0.00,,,0.00,0.0,WeatherDisplay:10.37,2013-08-02 06:22:00,
2013-08-02 01:27:00,55.7,54.0,29.82,NNW,340,0.0,0.0,94,0.00,,,0.00,0.0,WeatherDisplay:10.37,2013-08-02 06:27:00,
2013-08-02 01:32:00,55.5,53.8,29.82,NNW,340,0.0,0.0,94,0.00,CLR,,0.00,0.0,WeatherDisplay:10.37,2013-08-02 06:32:00,
2013-08-02 01:37:00,55.3,53.6,29.82,NNW,340,0.0,0.0,94,0.00,CLR,,0.00,0.0,WeatherDisplay:10.37,2013-08-02 06:37:00,
2013-08-02 01:42:00,55.2,53.5,29.82,NNW,340,0.0,0.0,94,0.00,CLR,,0.00,0.0,WeatherDisplay:10.37,2013-08-02 06:42:00,
2013-08-02 01:47:00,60.5,58.8,29.86,NNW,340,0.0,0.0,94,0.00,CLR,,0.00,0.0,WeatherDisplay:10.37,2013-08-02 06:47:00,
2013-08-02 01:52:00,60.5,58.8,29.86,NNW,340,0.0,0.0,94,0.00,CLR,,0.00,0.0,WeatherDisplay:10.37,2013-08-02 06:52:00,
2013-08-02 01:57:00,60.5,58.8,29.86,NNW,340,0.0,0.0,94,0.00,CLR,,0.00,0.0,WeatherDisplay:10.37,2013-08-02 06:57:00,
2013-08-02 02:02:00,60.5,58.8,29.86,NNW,340,0.0,0.0,94,0.00,BKN,,0.00,0.0,WeatherDisplay:10.37,2013-08-02 07:02:00,
2013-08-02 02:07:00,60.5,58.8,29.86,NNW,340,0.0,0.0,94,0.00,BKN,,0.00,0.0,WeatherDisplay:10.37,2013-08-02 07:07:00,
2013-08-02 02:12:00,54.4,52.7,29.83,NNW,340,0.0,0.0,94,0.00,BKN,,0.00,0.0,WeatherDisplay:10.37,2013-08-02 07:12:00,
2013-08-02 02:17:00,54.4,53.0,29.83,North,355,1.1,0.0,95,0.00,BKN,,0.00,0.0,WeatherDisplay:10.37,2013-08-02 07:17:00,
2013-08-02 02:22:00,54.5,53.1,29.83,North,355,0.0,0.0,95,0.00,BKN,,0.00,0.0,WeatherDisplay:10.37,2013-08-02 07:22:00,
2013-08-02 02:27:00,54.5,53.4,29.83,North,355,0.0,0.0,96,0.00,BKN,,0.00,0.0,WeatherDisplay:10.37,2013-08-02 07:27:00,
2013-08-02 02:32:00,54.5,53.4,29.83,North,355,0.0,0.0,96,0.00,BKN,,0.00,0.0,WeatherDisplay:10.37,2013-08-02 07:32:00,
2013-08-02 02:37:00,54.5,53.4,29.82,North,355,0.0,0.0,96,0.00,BKN,,0.00,0.0,WeatherDisplay:10.37,2013-08-02 07:37:00,
2013-08-02 02:42:00,54.4,53.3,29.82,North,355,0.0,0.0,96,0.00,BKN,,0.00,0.0,WeatherDisplay:10.37,2013-08-02 07:42:00,
2013-08-02 02:47:00,54.4,53.3,29.82,North,355,0.0,0.0,96,0.00,BKN,,0.00,0.0,WeatherDisplay:10.37,2013-08-02 07:47:00,
2013-08-02 02:53:00,54.4,53.3,29.83,North,355,0.0,0.1,96,0.00,BKN,,0.00,0.0,WeatherDisplay:10.37,2013-08-02 07:53:00,
2013-08-02 02:57:00,54.5,53.4,29.83,North,355,0.0,0.0,96,0.00,BKN,,0.00,0.0,WeatherDisplay:10.37,2013-08-02 07:57:00,
2013-08-02 03:03:00,54.4,53.3,29.83,North,355,0.0,0.1,96,0.00,CLR,,0.00,0.0,WeatherDisplay:10.37,2013-08-02 08:03:00,
2013-08-02 03:08:00,54.4,53.3,29.83,North,355,0.0,0.0,96,0.00,CLR,,0.00,0.0,WeatherDisplay:10.37,2013-08-02 08:08:00,
2013-08-02 03:12:00,54.4,53.3,29.83,North,355,0.0,0.0,96,0.00,CLR,,0.00,0.0,WeatherDisplay:10.37,2013-08-02 08:12:00,
2013-08-02 03:18:00,54.1,53.0,29.83,North,355,0.0,0.0,96,0.00,CLR,,0.00,0.0,WeatherDisplay:10.37,2013-08-02 08:18:00,
2013-08-02 03:23:00,54.4,53.3,29.83,North,355,0.0,0.0,96,0.00,CLR,,0.00,0.0,WeatherDisplay:10.37,2013-08-02 08:23:00,
2013-08-02 03:28:00,53.9,52.8,29.83,North,355,0.0,0.0,96,0.00,CLR,,0.00,0.0,WeatherDisplay:10.37,2013-08-02 08:28:00,
2013-08-02 03:33:00,53.7,52.6,29.83,North,355,0.0,0.0,96,0.00,CLR,,0.00,0.0,WeatherDisplay:10.37,2013-08-02 08:33:00,
2013-08-02 03:38:00,53.6,52.5,29.83,North,355,0.0,0.0,96,0.00,CLR,,0.00,0.0,WeatherDisplay:10.37,2013-08-02 08:38:00,
2013-08-02 03:43:00,53.3,52.2,29.82,North,355,0.0,0.0,96,0.00,CLR,,0.00,0.0,WeatherDisplay:10.37,2013-08-02 08:43:00,
2013-08-02 03:48:00,53.9,52.8,29.83,North,355,0.0,0.0,96,0.00,CLR,,0.00,0.0,WeatherDisplay:10.37,2013-08-02 08:48:00,
2013-08-02 03:53:00,53.0,51.6,29.83,North,355,0.0,0.0,95,0.00,CLR,,0.00,0.0,WeatherDisplay:10.37,2013-08-02 08:53:00,
2013-08-02 03:58:00,52.8,51.7,29.83,North,355,0.0,0.0,96,0.00,CLR,,0.00,0.0,WeatherDisplay:10.37,2013-08-02 08:58:00,
2013-08-02 04:03:00,53.9,52.8,29.83,North,355,0.0,0.0,96,0.00,CLR,,0.00,0.0,WeatherDisplay:10.37,2013-08-02 09:03:00,
2013-08-02 04:08:00,52.5,51.1,29.83,North,355,0.0,0.0,95,0.00,CLR,,0.00,0.0,WeatherDisplay:10.37,2013-08-02 09:08:00,
2013-08-02 04:13:00,53.9,52.8,29.83,North,355,0.0,0.0,96,0.00,CLR,,0.00,0.0,WeatherDisplay:10.37,2013-08-02 09:13:00,
2013-08-02 04:18:00,52.1,51.0,29.83,North,355,0.0,0.0,96,0.00,CLR,,0.00,0.0,WeatherDisplay:10.37,2013-08-02 09:18:00,
2013-08-02 04:23:00,52.1,51.0,29.84,North,355,0.0,0.0,96,0.00,CLR,,0.00,0.0,WeatherDisplay:10.37,2013-08-02 09:23:00,
2013-08-02 04:28:00,51.9,50.8,29.84,North,355,0.0,0.0,96,0.00,CLR,,0.00,0.0,WeatherDisplay:10.37,2013-08-02 09:28:00,
2013-08-02 04:33:00,51.7,50.6,29.84,North,355,0.0,0.1,96,0.00,CLR,,0.00,0.0,WeatherDisplay:10.37,2013-08-02 09:33:00,
2013-08-02 04:38:00,51.5,50.4,29.84,North,355,0.0,0.0,96,0.00,CLR,,0.00,0.0,WeatherDisplay:10.37,2013-08-02 09:38:00,
2013-08-02 04:43:00,51.4,50.0,29.83,North,355,0.0,0.0,95,0.00,CLR,,0.00,0.0,WeatherDisplay:10.37,2013-08-02 09:43:00,
2013-08-02 04:48:00,53.9,52.8,29.83,North,355,0.0,0.0,96,0.00,CLR,,0.00,0.0,WeatherDisplay:10.37,2013-08-02 09:48:00,
2013-08-02 04:53:00,53.9,52.8,29.83,North,355,0.0,0.0,96,0.00,CLR,,0.00,0.0,WeatherDisplay:10.37,2013-08-02 09:53:00,
2013-08-02 04:58:00,51.0,49.9,29.83,North,355,0.0,0.0,96,0.00,CLR,,0.00,0.0,WeatherDisplay:10.37,2013-08-02 09:58:00,
2013-08-02 05:03:00,53.9,52.8,29.83,North,355,0.0,0.0,96,0.00,,,0.00,0.0,WeatherDisplay:10.37,2013-08-02 10:03:00,
2013-08-02 05:08:00,50.8,49.7,29.83,North,355,0.0,0.0,96,0.00,,,0.00,0.0,WeatherDisplay:10.37,2013-08-02 10:08:00,
2013-08-02 05:13:00,50.6,49.5,29.83,North,355,0.0,0.0,96,0.00,,,0.00,0.0,WeatherDisplay:10.37,2013-08-02 10:13:00,
2013-08-02 05:18:00,50.5,49.4,29.83,North,355,0.0,0.0,96,0.00,,,0.00,0.0,WeatherDisplay:10.37,2013-08-02 10:18:00,
2013-08-02 05:23:00,53.9,52.8,29.83,North,355,0.0,0.0,96,0.00,,,0.00,0.0,WeatherDisplay:10.37,2013-08-02 10:23:00,
2013-08-02 05:28:00,53.9,52.8,29.83,North,355,0.0,0.0,96,0.00,,,0.00,0.0,WeatherDisplay:10.37,2013-08-02 10:28:00,
2013-08-02 05:33:00,50.1,49.0,29.83,North,355,0.0,0.0,96,0.00,FEW,,0.00,0.0,WeatherDisplay:10.37,2013-08-02 10:33:00,
2013-08-02 05:38:00,50.1,49.0,29.83,North,355,0.0,0.0,96,0.00,FEW,,0.00,0.0,WeatherDisplay:10.37,2013-08-02 10:38:00,
2013-08-02 05:43:00,50.1,49.0,29.83,North,355,0.0,0.0,96,0.00,FEW,,0.00,0.0,WeatherDisplay:10.37,2013-08-02 10:43:00,
2013-08-02 05:48:00,49.6,48.5,29.83,North,355,0.0,0.0,96,0.00,FEW,,0.00,0.0,WeatherDisplay:10.37,2013-08-02 10:48:00,
2013-08-02 05:53:00,49.5,48.4,29.83,North,355,0.0,0.0,96,0.00,FEW,,0.00,0.0,WeatherDisplay:10.37,2013-08-02 10:53:00,
2013-08-02 05:58:00,50.1,49.0,29.83,North,355,0.0,0.0,96,0.00,FEW,,0.00,0.0,WeatherDisplay:10.37,2013-08-02 10:58:00,
2013-08-02 06:03:00,49.3,48.2,29.84,North,355,0.0,0.0,96,0.00,BKN,,0.00,0.0,WeatherDisplay:10.37,2013-08-02 11:03:00,
2013-08-02 06:08:00,49.2,48.1,29.84,North,355,0.0,0.0,96,0.00,BKN,,0.00,5.0,WeatherDisplay:10.37,2013-08-02 11:08:00,
2013-08-02 06:13:00,49.2,48.1,29.84,North,355,0.0,0.0,96,0.00,BKN,,0.00,7.0,WeatherDisplay:10.37,2013-08-02 11:13:00,
2013-08-02 06:18:00,50.1,49.0,29.83,North,355,0.0,0.0,96,0.00,OVC,,0.00,0.0,WeatherDisplay:10.37,2013-08-02 11:18:00,
2013-08-02 06:23:00,50.1,49.0,29.83,North,355,0.0,0.0,96,0.00,OVC,,0.00,0.0,WeatherDisplay:10.37,2013-08-02 11:23:00,
2013-08-02 06:28:00,48.9,47.8,29.84,North,355,0.0,0.0,96,0.00,OVC,,0.00,11.0,WeatherDisplay:10.37,2013-08-02 11:28:00,
2013-08-02 06:33:00,48.8,47.7,29.84,North,355,0.0,0.0,96,0.00,OVC,,0.00,11.0,WeatherDisplay:10.37,2013-08-02 11:33:00,
2013-08-02 06:38:00,50.1,49.0,29.83,North,355,0.0,0.0,96,0.00,OVC,,0.00,0.0,WeatherDisplay:10.37,2013-08-02 11:38:00,
2013-08-02 06:43:00,50.1,49.0,29.83,North,355,0.0,0.0,96,0.00,OVC,,0.00,0.0,WeatherDisplay:10.37,2013-08-02 11:43:00,
2013-08-02 06:48:00,49.0,47.9,29.85,North,355,0.0,0.0,96,0.00,OVC,,0.00,14.0,WeatherDisplay:10.37,2013-08-02 11:48:00,
2013-08-02 06:53:00,49.0,47.9,29.85,North,355,0.0,0.0,96,0.00,OVC,,0.00,14.0,WeatherDisplay:10.37,2013-08-02 11:53:00,
2013-08-02 06:58:00,49.2,48.4,29.85,North,355,0.0,0.0,97,0.00,OVC,,0.00,14.0,WeatherDisplay:10.37,2013-08-02 11:58:00,
2013-08-02 07:03:00,50.1,49.0,29.83,North,355,0.0,0.0,96,0.00,OVC,,0.00,0.0,WeatherDisplay:10.37,2013-08-02 12:03:00,
2013-08-02 07:08:00,49.5,48.7,29.85,North,355,0.0,0.0,97,0.00,OVC,,0.00,16.0,WeatherDisplay:10.37,2013-08-02 12:08:00,
2013-08-02 07:13:00,49.9,49.1,29.85,North,355,0.0,0.0,97,0.00,OVC,,0.00,18.0,WeatherDisplay:10.37,2013-08-02 12:13:00,
2013-08-02 07:18:00,50.3,49.5,29.86,North,355,0.0,0.0,97,0.00,OVC,,0.00,18.0,WeatherDisplay:10.37,2013-08-02 12:18:00,
2013-08-02 07:23:00,50.6,49.8,29.86,North,355,0.0,0.0,97,0.00,OVC,,0.00,18.0,WeatherDisplay:10.37,2013-08-02 12:23:00,
2013-08-02 07:28:00,49.5,48.7,29.85,North,355,0.0,0.0,97,0.00,OVC,,0.00,16.0,WeatherDisplay:10.37,2013-08-02 12:28:00,
2013-08-02 07:33:00,49.5,48.7,29.85,North,355,0.0,0.0,97,0.00,OVC,,0.00,16.0,WeatherDisplay:10.37,2013-08-02 12:33:00,
2013-08-02 07:38:00,51.8,51.3,29.86,North,355,0.0,0.0,98,0.00,OVC,,0.00,21.0,WeatherDisplay:10.37,2013-08-02 12:38:00,
2013-08-02 07:43:00,49.5,48.7,29.85,North,355,0.0,0.0,97,0.00,OVC,,0.00,16.0,WeatherDisplay:10.37,2013-08-02 12:43:00,
2013-08-02 07:48:00,52.8,52.3,29.86,NNW,339,1.1,0.0,98,0.00,BKN,,0.00,25.0,WeatherDisplay:10.37,2013-08-02 12:48:00,
2013-08-02 07:53:00,53.3,52.8,29.86,NNW,339,0.0,0.0,98,0.00,BKN,,0.00,53.0,WeatherDisplay:10.37,2013-08-02 12:53:00,
2013-08-02 07:58:00,49.5,48.7,29.85,North,355,0.0,0.0,97,0.00,BKN,,0.00,16.0,WeatherDisplay:10.37,2013-08-02 12:58:00,
2013-08-02 08:03:00,54.6,54.0,29.86,NW,308,0.0,0.0,98,0.00,BKN,,0.00,93.0,WeatherDisplay:10.37,2013-08-02 13:03:00,
2013-08-02 08:08:00,55.2,54.6,29.87,NW,308,0.0,0.0,98,0.00,BKN,,0.00,98.0,WeatherDisplay:10.37,2013-08-02 13:08:00,
2013-08-02 08:14:00,56.2,55.6,29.87,WNW,300,0.0,0.0,98,0.00,BKN,,0.00,44.0,WeatherDisplay:10.37,2013-08-02 13:14:00,
2013-08-02 08:19:00,49.5,48.7,29.85,North,355,0.0,0.0,97,0.00,FEW,,0.00,16.0,WeatherDisplay:10.37,2013-08-02 13:19:00,
2013-08-02 08:24:00,57.8,57.2,29.87,WNW,292,0.0,0.0,98,0.00,FEW,,0.00,32.0,WeatherDisplay:10.37,2013-08-02 13:24:00,
2013-08-02 08:29:00,58.3,57.7,29.87,NW,313,2.3,2.3,98,0.00,FEW,,0.00,39.0,WeatherDisplay:10.37,2013-08-02 13:29:00,
2013-08-02 08:34:00,49.5,48.7,29.85,North,355,0.0,0.0,97,0.00,FEW,,0.00,16.0,WeatherDisplay:10.37,2013-08-02 13:34:00,
2013-08-02 08:39:00,49.5,48.7,29.85,North,355,0.0,0.0,97,0.00,FEW,,0.00,16.0,WeatherDisplay:10.37,2013-08-02 13:39:00,
2013-08-02 08:44:00,59.1,58.5,29.87,WNW,283,2.3,2.3,98,0.00,FEW,,0.00,33.0,WeatherDisplay:10.37,2013-08-02 13:44:00,
2013-08-02 08:49:00,59.3,58.7,29.87,WNW,302,1.1,0.0,98,0.00,FEW,,0.00,33.0,WeatherDisplay:10.37,2013-08-02 13:49:00,
2013-08-02 08:54:00,59.5,58.9,29.87,SW,223,3.0,3.0,98,0.00,FEW,,0.00,86.0,WeatherDisplay:10.37,2013-08-02 13:54:00,
2013-08-02 08:59:00,59.7,59.1,29.87,NW,309,4.6,0.0,98,0.00,FEW,,0.00,146.0,WeatherDisplay:10.37,2013-08-02 13:59:00,
2013-08-02 09:04:00,60.0,59.4,29.87,SSW,195,3.5,0.0,98,0.00,CLR,,0.00,72.0,WeatherDisplay:10.37,2013-08-02 14:04:00,
2013-08-02 09:09:00,49.5,48.7,29.85,North,355,0.0,0.0,97,0.00,CLR,,0.00,16.0,WeatherDisplay:10.37,2013-08-02 14:09:00,
2013-08-02 09:14:00,60.8,58.8,29.87,WSW,248,0.0,0.2,93,0.00,CLR,,0.00,156.0,WeatherDisplay:10.37,2013-08-02 14:14:00,
2013-08-02 09:19:00,61.3,59.3,29.87,WSW,248,1.1,1.1,93,0.00,CLR,,0.00,72.0,WeatherDisplay:10.37,2013-08-02 14:19:00,
2013-08-02 09:24:00,49.5,48.7,29.85,North,355,0.0,0.0,97,0.00,CLR,,0.00,16.0,WeatherDisplay:10.37,2013-08-02 14:24:00,
2013-08-02 09:29:00,62.1,57.9,29.87,NE,35,2.3,2.3,86,0.00,CLR,,0.00,69.0,WeatherDisplay:10.37,2013-08-02 14:29:00,
2013-08-02 09:34:00,62.2,57.6,29.87,NNE,15,3.5,3.5,85,0.00,CLR,,0.00,76.0,WeatherDisplay:10.37,2013-08-02 14:34:00,
2013-08-02 09:39:00,62.2,57.6,29.87,NNE,15,3.5,3.5,85,0.00,CLR,,0.00,76.0,WeatherDisplay:10.37,2013-08-02 14:39:00,
2013-08-02 09:44:00,62.2,57.6,29.87,NNE,15,3.5,3.5,85,0.00,CLR,,0.00,76.0,WeatherDisplay:10.37,2013-08-02 14:44:00,
2013-08-02 09:49:00,63.6,57.7,29.88,NE,34,2.3,2.3,81,0.00,CLR,,0.00,44.0,WeatherDisplay:10.37,2013-08-02 14:49:00,
2013-08-02 09:54:00,64.0,58.4,29.88,West,263,1.1,1.1,82,0.00,CLR,,0.00,47.0,WeatherDisplay:10.37,2013-08-02 14:54:00,
2013-08-02 09:59:00,62.2,57.6,29.87,NNE,15,3.5,3.5,85,0.00,CLR,,0.00,76.0,WeatherDisplay:10.37,2013-08-02 14:59:00,
2013-08-02 10:04:00,62.2,57.6,29.87,NNE,15,3.5,3.5,85,0.00,CLR,,0.00,76.0,WeatherDisplay:10.37,2013-08-02 15:04:00,
2013-08-02 10:09:00,65.1,56.6,29.88,WSW,252,5.8,5.8,74,0.00,CLR,,0.00,72.0,WeatherDisplay:10.37,2013-08-02 15:09:00,
2013-08-02 10:14:00,62.2,57.6,29.87,NNE,15,3.5,3.5,85,0.00,CLR,,0.00,76.0,WeatherDisplay:10.37,2013-08-02 15:14:00,
2013-08-02 10:19:00,62.2,57.6,29.87,NNE,15,3.5,3.5,85,0.00,CLR,,0.00,76.0,WeatherDisplay:10.37,2013-08-02 15:19:00,
2013-08-02 10:24:00,62.2,57.6,29.87,NNE,15,3.5,3.5,85,0.00,CLR,,0.00,76.0,WeatherDisplay:10.37,2013-08-02 15:24:00,
2013-08-02 10:29:00,66.0,56.3,29.88,West,259,3.5,3.5,71,0.00,CLR,,0.00,63.0,WeatherDisplay:10.37,2013-08-02 15:29:00,
2013-08-02 10:34:00,66.0,56.3,29.88,West,259,2.3,2.4,71,0.00,CLR,,0.00,63.0,WeatherDisplay:10.37,2013-08-02 15:34:00,
2013-08-02 10:39:00,66.4,55.9,29.88,SE,146,3.5,3.5,69,0.00,CLR,,0.00,49.0,WeatherDisplay:10.37,2013-08-02 15:39:00,
2013-08-02 10:44:00,66.0,56.3,29.88,West,259,2.3,2.4,71,0.00,CLR,,0.00,63.0,WeatherDisplay:10.37,2013-08-02 15:44:00,
2013-08-02 10:49:00,66.0,56.3,29.88,West,259,2.3,2.4,71,0.00,CLR,,0.00,63.0,WeatherDisplay:10.37,2013-08-02 15:49:00,
2013-08-02 10:54:00,67.0,56.1,29.88,South,175,5.8,5.8,68,0.00,CLR,,0.00,186.0,WeatherDisplay:10.37,2013-08-02 15:54:00,
2013-08-02 10:59:00,66.0,56.3,29.88,West,259,2.3,2.4,71,0.00,CLR,,0.00,63.0,WeatherDisplay:10.37,2013-08-02 15:59:00,
2013-08-02 11:04:00,67.8,56.4,29.89,WSW,257,2.3,2.3,67,0.00,FEW,,0.00,272.0,WeatherDisplay:10.37,2013-08-02 16:04:00,
2013-08-02 11:09:00,68.4,56.2,29.89,WSW,257,3.0,3.0,65,0.00,FEW,,0.00,824.0,WeatherDisplay:10.37,2013-08-02 16:09:00,
2013-08-02 11:14:00,66.0,56.3,29.88,West,259,2.3,2.4,71,0.00,FEW,,0.00,63.0,WeatherDisplay:10.37,2013-08-02 16:14:00,
2013-08-02 11:19:00,69.8,55.7,29.89,NW,320,3.5,3.5,61,0.00,FEW,,0.00,807.0,WeatherDisplay:10.37,2013-08-02 16:19:00,
2013-08-02 11:24:00,70.3,56.2,29.88,ENE,64,3.5,3.5,61,0.00,FEW,,0.00,729.0,WeatherDisplay:10.37,2013-08-02 16:24:00,
2013-08-02 11:29:00,66.0,56.3,29.88,West,259,2.3,2.4,71,0.00,FEW,,0.00,63.0,WeatherDisplay:10.37,2013-08-02 16:29:00,
2013-08-02 11:34:00,70.7,55.7,29.88,West,265,3.5,3.5,59,0.00,FEW,,0.00,939.0,WeatherDisplay:10.37,2013-08-02 16:34:00,
2013-08-02 11:39:00,66.0,56.3,29.88,West,259,2.3,2.4,71,0.00,FEW,,0.00,63.0,WeatherDisplay:10.37,2013-08-02 16:39:00,
2013-08-02 11:44:00,66.0,56.3,29.88,West,259,2.3,2.4,71,0.00,FEW,,0.00,63.0,WeatherDisplay:10.37,2013-08-02 16:44:00,
2013-08-02 11:49:00,71.3,55.8,29.88,East,99,1.1,0.0,58,0.00,FEW,,0.00,837.0,WeatherDisplay:10.37,2013-08-02 16:49:00,
2013-08-02 11:54:00,66.0,56.3,29.88,West,259,2.3,2.4,71,0.00,FEW,,0.00,63.0,WeatherDisplay:10.37,2013-08-02 16:54:00,
2013-08-02 11:59:00,66.0,56.3,29.88,West,259,2.3,2.4,71,0.00,FEW,,0.00,63.0,WeatherDisplay:10.37,2013-08-02 16:59:00,
2013-08-02 12:04:00,66.0,56.3,29.88,West,259,2.3,2.4,71,0.00,SCT,,0.00,63.0,WeatherDisplay:10.37,2013-08-02 17:04:00,
2013-08-02 12:09:00,66.0,56.3,29.88,West,259,2.3,2.4,71,0.00,SCT,,0.00,63.0,WeatherDisplay:10.37,2013-08-02 17:09:00,
2013-08-02 12:14:00,66.0,56.3,29.88,West,259,2.3,2.4,71,0.00,SCT,,0.00,63.0,WeatherDisplay:10.37,2013-08-02 17:14:00,
2013-08-02 12:19:00,73.1,55.5,29.89,SW,236,3.0,3.0,54,0.00,SCT,,0.00,935.0,WeatherDisplay:10.37,2013-08-02 17:19:00,
2013-08-02 12:24:00,73.6,55.4,29.89,SW,219,3.0,3.0,53,0.00,SCT,,0.00,925.0,WeatherDisplay:10.37,2013-08-02 17:24:00,
2013-08-02 12:29:00,73.9,54.6,29.89,NNW,331,2.0,2.0,51,0.00,SCT,,0.00,976.0,WeatherDisplay:10.37,2013-08-02 17:29:00,
2013-08-02 12:34:00,66.0,56.3,29.88,West,259,2.3,2.4,71,0.00,SCT,,0.00,63.0,WeatherDisplay:10.37,2013-08-02 17:34:00,
2013-08-02 12:39:00,66.0,56.3,29.88,West,259,2.3,2.4,71,0.00,SCT,,0.00,63.0,WeatherDisplay:10.37,2013-08-02 17:39:00,
2013-08-02 12:44:00,66.0,56.3,29.88,West,259,2.3,2.4,71,0.00,SCT,,0.00,63.0,WeatherDisplay:10.37,2013-08-02 17:44:00,
2013-08-02 12:49:00,74.3,53.9,29.89,SW,228,5.8,5.8,49,0.00,SCT,,0.00,895.0,WeatherDisplay:10.37,2013-08-02 17:49:00,
2013-08-02 12:54:00,74.4,57.7,29.89,NE,34,5.8,5.8,56,0.00,SCT,,0.00,947.0,WeatherDisplay:10.37,2013-08-02 17:54:00,
2013-08-02 12:59:00,66.0,56.3,29.88,West,259,2.3,2.4,71,0.00,SCT,,0.00,63.0,WeatherDisplay:10.37,2013-08-02 17:59:00,
2013-08-02 13:04:00,66.0,56.3,29.88,West,259,2.3,2.4,71,0.00,BKN,,0.00,63.0,WeatherDisplay:10.37,2013-08-02 18:04:00,
2013-08-02 13:09:00,74.7,53.7,29.89,SW,232,3.5,3.5,48,0.00,BKN,,0.00,946.0,WeatherDisplay:10.37,2013-08-02 18:09:00,
2013-08-02 13:14:00,74.9,53.9,29.89,WSW,254,4.6,4.6,48,0.00,BKN,,0.00,976.0,WeatherDisplay:10.37,2013-08-02 18:14:00,
2013-08-02 13:19:00,75.2,55.3,29.89,East,96,3.5,3.5,50,0.00,BKN,,0.00,1004.0,WeatherDisplay:10.37,2013-08-02 18:19:00,
2013-08-02 13:24:00,66.0,56.3,29.88,West,259,2.3,2.4,71,0.00,BKN,,0.00,63.0,WeatherDisplay:10.37,2013-08-02 18:24:00,
2013-08-02 13:29:00,75.5,52.7,29.89,NW,309,5.8,5.8,45,0.00,BKN,,0.00,954.0,WeatherDisplay:10.37,2013-08-02 18:29:00,
2013-08-02 13:34:00,75.4,53.8,29.89,SW,229,2.3,2.3,47,0.00,BKN,,0.00,958.0,WeatherDisplay:10.37,2013-08-02 18:34:00,
2013-08-02 13:39:00,66.0,56.3,29.88,West,259,2.3,2.4,71,0.00,BKN,,0.00,63.0,WeatherDisplay:10.37,2013-08-02 18:39:00,
2013-08-02 13:44:00,75.8,54.7,29.89,SW,225,3.0,3.0,48,0.00,BKN,,0.00,951.0,WeatherDisplay:10.37,2013-08-02 18:44:00,
2013-08-02 13:49:00,76.0,56.0,29.89,NNE,21,2.3,2.3,50,0.00,BKN,,0.00,958.0,WeatherDisplay:10.37,2013-08-02 18:49:00,
2013-08-02 13:54:00,75.9,53.6,29.89,NW,315,5.8,5.8,46,0.00,BKN,,0.00,956.0,WeatherDisplay:10.37,2013-08-02 18:54:00,
2013-08-02 13:59:00,66.0,56.3,29.88,West,259,2.3,2.4,71,0.00,BKN,,0.00,63.0,WeatherDisplay:10.37,2013-08-02 18:59:00,
2013-08-02 14:04:00,66.0,56.3,29.88,West,259,2.3,2.4,71,0.00,SCT,,0.00,63.0,WeatherDisplay:10.37,2013-08-02 19:04:00,
2013-08-02 14:09:00,66.0,56.3,29.88,West,259,2.3,2.4,71,0.00,SCT,,0.00,63.0,WeatherDisplay:10.37,2013-08-02 19:09:00,
2013-08-02 14:14:00,66.0,56.3,29.88,West,259,2.3,2.4,71,0.00,SCT,,0.00,63.0,WeatherDisplay:10.37,2013-08-02 19:14:00,
2013-08-02 14:19:00,75.2,51.8,29.90,NE,34,5.0,5.0,44,0.00,SCT,,0.00,935.0,WeatherDisplay:10.37,2013-08-02 19:19:00,
2013-08-02 14:24:00,75.2,52.4,29.90,NNE,25,3.5,3.5,45,0.00,SCT,,0.00,881.0,WeatherDisplay:10.37,2013-08-02 19:24:00,
2013-08-02 14:30:00,75.3,51.9,29.90,NE,40,3.0,3.0,44,0.00,SCT,,0.00,911.0,WeatherDisplay:10.37,2013-08-02 19:30:00,
2013-08-02 14:35:00,75.6,52.1,29.90,SE,140,3.5,3.5,44,0.00,SCT,,0.00,789.0,WeatherDisplay:10.37,2013-08-02 19:35:00,
2013-08-02 14:40:00,76.0,53.1,29.90,SW,236,4.6,4.6,45,0.00,SCT,,0.00,905.0,WeatherDisplay:10.37,2013-08-02 19:40:00,
2013-08-02 14:44:00,66.0,56.3,29.88,West,259,2.3,2.4,71,0.00,SCT,,0.00,63.0,WeatherDisplay:10.37,2013-08-02 19:44:00,
2013-08-02 14:49:00,66.0,56.3,29.88,West,259,2.3,2.4,71,0.00,SCT,,0.00,63.0,WeatherDisplay:10.37,2013-08-02 19:49:00,
2013-08-02 14:55:00,66.0,56.3,29.88,West,259,2.3,2.4,71,0.00,SCT,,0.00,63.0,WeatherDisplay:10.37,2013-08-02 19:55:00,
2013-08-02 15:00:00,66.0,56.3,29.88,West,259,2.3,2.4,71,0.00,SCT,,0.00,63.0,WeatherDisplay:10.37,2013-08-02 20:00:00,
2013-08-02 15:05:00,66.0,56.3,29.88,West,259,2.3,2.4,71,0.00,BKN,,0.00,63.0,WeatherDisplay:10.37,2013-08-02 20:05:00,
2013-08-02 15:10:00,66.0,56.3,29.88,West,259,2.3,2.4,71,0.00,BKN,,0.00,63.0,WeatherDisplay:10.37,2013-08-02 20:10:00,
2013-08-02 15:15:00,66.0,56.3,29.88,West,259,2.3,2.4,71,0.00,BKN,,0.00,63.0,WeatherDisplay:10.37,2013-08-02 20:15:00,
2013-08-02 15:20:00,76.7,52.5,29.90,North,9,2.3,2.3,43,0.00,BKN,,0.00,824.0,WeatherDisplay:10.37,2013-08-02 20:20:00,
2013-08-02 15:25:00,76.6,50.5,29.90,NNW,344,4.6,4.6,40,0.00,BKN,,0.00,680.0,WeatherDisplay:10.37,2013-08-02 20:25:00,
2013-08-02 15:30:00,76.4,50.3,29.90,SW,235,3.5,3.5,40,0.00,BKN,,0.00,765.0,WeatherDisplay:10.37,2013-08-02 20:30:00,
2013-08-02 15:35:00,66.0,56.3,29.88,West,259,2.3,2.4,71,0.00,BKN,,0.00,63.0,WeatherDisplay:10.37,2013-08-02 20:35:00,
2013-08-02 15:40:00,76.6,53.1,29.90,ENE,62,3.5,3.5,44,0.00,BKN,,0.00,722.0,WeatherDisplay:10.37,2013-08-02 20:40:00,
2013-08-02 15:44:00,76.4,52.9,29.90,NE,49,3.0,3.0,44,0.00,BKN,,0.00,705.0,WeatherDisplay:10.37,2013-08-02 20:44:00,
2013-08-02 15:50:00,66.0,56.3,29.88,West,259,2.3,2.4,71,0.00,BKN,,0.00,63.0,WeatherDisplay:10.37,2013-08-02 20:50:00,
2013-08-02 15:55:00,66.0,56.3,29.88,West,259,2.3,2.4,71,0.00,BKN,,0.00,63.0,WeatherDisplay:10.37,2013-08-02 20:55:00,
2013-08-02 16:00:00,75.8,52.3,29.90,South,173,5.8,5.8,44,0.00,BKN,,0.00,563.0,WeatherDisplay:10.37,2013-08-02 21:00:00,
2013-08-02 16:05:00,66.0,56.3,29.88,West,259,2.3,2.4,71,0.00,SCT,,0.00,63.0,WeatherDisplay:10.37,2013-08-02 21:05:00,
2013-08-02 16:10:00,75.5,55.0,29.90,NW,308,1.1,1.1,49,0.00,SCT,,0.00,512.0,WeatherDisplay:10.37,2013-08-02 21:10:00,
2013-08-02 16:15:00,75.2,53.6,29.90,WSW,254,3.5,3.5,47,0.00,SCT,,0.00,271.0,WeatherDisplay:10.37,2013-08-02 21:15:00,
2013-08-02 16:20:00,74.9,53.3,29.90,West,275,3.5,3.5,47,0.00,SCT,,0.00,388.0,WeatherDisplay:10.37,2013-08-02 21:20:00,
2013-08-02 16:25:00,74.7,52.5,29.90,NW,315,3.5,3.5,46,0.00,SCT,,0.00,237.0,WeatherDisplay:10.37,2013-08-02 21:25:00,
2013-08-02 16:30:00,75.1,52.9,29.90,SSE,154,0.0,1.0,46,0.00,SCT,,0.00,408.0,WeatherDisplay:10.37,2013-08-02 21:30:00,
2013-08-02 16:35:00,75.1,52.9,29.90,SSE,154,0.0,1.0,46,0.00,SCT,,0.00,408.0,WeatherDisplay:10.37,2013-08-02 21:35:00,
2013-08-02 16:40:00,74.8,54.4,29.90,WSW,248,1.1,1.1,49,0.00,SCT,,0.00,508.0,WeatherDisplay:10.37,2013-08-02 21:40:00,
2013-08-02 16:45:00,75.1,52.9,29.90,SSE,154,0.0,1.0,46,0.00,SCT,,0.00,408.0,WeatherDisplay:10.37,2013-08-02 21:45:00,
2013-08-02 16:50:00,75.1,52.9,29.90,SSE,154,0.0,1.0,46,0.00,SCT,,0.00,408.0,WeatherDisplay:10.37,2013-08-02 21:50:00,
2013-08-02 16:55:00,75.1,53.5,29.90,SSE,167,3.5,3.5,47,0.00,SCT,,0.00,592.0,WeatherDisplay:10.37,2013-08-02 21:55:00,
2013-08-02 17:00:00,75.2,54.2,29.91,WNW,301,3.0,3.0,48,0.00,SCT,,0.00,206.0,WeatherDisplay:10.37,2013-08-02 22:00:00,
2013-08-02 17:05:00,74.8,52.6,29.91,WSW,244,2.0,2.0,46,0.00,SCT,,0.00,388.0,WeatherDisplay:10.37,2013-08-02 22:05:00,
2013-08-02 17:10:00,74.2,52.7,29.91,NE,41,2.3,2.3,47,0.00,SCT,,0.00,439.0,WeatherDisplay:10.37,2013-08-02 22:10:00,
2013-08-02 17:15:00,73.9,54.1,29.91,NNE,30,1.1,1.1,50,0.00,SCT,,0.00,350.0,WeatherDisplay:10.37,2013-08-02 22:15:00,
2013-08-02 17:20:00,73.9,54.1,29.91,WSW,250,2.3,2.3,50,0.00,FEW,,0.00,334.0,WeatherDisplay:10.37,2013-08-02 22:20:00,
2013-08-02 17:25:00,73.7,53.3,29.91,WSW,249,1.1,1.1,49,0.00,FEW,,0.00,195.0,WeatherDisplay:10.37,2013-08-02 22:25:00,
2013-08-02 17:30:00,74.9,52.7,29.91,SW,216,1.1,2.3,46,0.00,FEW,,0.00,380.0,WeatherDisplay:10.37,2013-08-02 22:30:00,
2013-08-02 17:35:00,74.9,52.7,29.91,SW,216,1.1,2.3,46,0.00,FEW,,0.00,380.0,WeatherDisplay:10.37,2013-08-02 22:35:00,
2013-08-02 17:40:00,74.9,52.7,29.91,SW,216,1.1,2.3,46,0.00,FEW,,0.00,380.0,WeatherDisplay:10.37,2013-08-02 22:40:00,
2013-08-02 17:45:00,74.9,52.7,29.91,SW,216,1.1,2.3,46,0.00,FEW,,0.00,380.0,WeatherDisplay:10.37,2013-08-02 22:45:00,
2013-08-02 17:50:00,72.7,53.5,29.91,West,271,2.3,2.3,51,0.00,FEW,,0.00,192.0,WeatherDisplay:10.37,2013-08-02 22:50:00,
2013-08-02 17:55:00,72.5,53.9,29.91,North,9,2.0,2.0,52,0.00,FEW,,0.00,125.0,WeatherDisplay:10.37,2013-08-02 22:55:00,
2013-08-02 18:00:00,72.3,53.2,29.91,NNW,335,1.0,1.0,51,0.00,FEW,,0.00,111.0,WeatherDisplay:10.37,2013-08-02 23:00:00,
2013-08-02 18:05:00,74.9,52.7,29.91,SW,216,1.1,2.3,46,0.00,FEW,,0.00,380.0,WeatherDisplay:10.37,2013-08-02 23:05:00,
2013-08-02 18:10:00,71.9,53.8,29.91,West,273,1.1,1.1,53,0.00,FEW,,0.00,114.0,WeatherDisplay:10.37,2013-08-02 23:10:00,
2013-08-02 18:15:00,71.8,55.7,29.92,West,273,0.0,0.0,57,0.00,FEW,,0.00,104.0,WeatherDisplay:10.37,2013-08-02 23:15:00,
2013-08-02 18:20:00,71.6,55.1,29.92,West,273,0.0,0.0,56,0.00,FEW,,0.00,105.0,WeatherDisplay:10.37,2013-08-02 23:20:00,
2013-08-02 18:25:00,71.4,56.3,29.92,West,273,0.0,0.0,59,0.00,FEW,,0.00,97.0,WeatherDisplay:10.37,2013-08-02 23:25:00,
2013-08-02 18:30:00,71.1,57.4,29.92,West,273,0.0,0.0,62,0.00,FEW,,0.00,91.0,WeatherDisplay:10.37,2013-08-02 23:30:00,
2013-08-02 18:35:00,71.0,57.8,29.92,West,273,0.0,0.0,63,0.00,FEW,,0.00,95.0,WeatherDisplay:10.37,2013-08-02 23:35:00,
2013-08-02 18:40:00,71.7,54.2,29.92,West,273,0.0,0.0,54,0.00,FEW,,0.00,102.0,WeatherDisplay:10.37,2013-08-02 23:40:00,
2013-08-02 18:45:00,70.4,54.4,29.92,West,273,1.1,0.0,57,0.00,FEW,,0.00,42.0,WeatherDisplay:10.37,2013-08-02 23:45:00,
2013-08-02 18:50:00,71.7,54.2,29.92,West,273,0.0,0.0,54,0.00,FEW,,0.00,102.0,WeatherDisplay:10.37,2013-08-02 23:50:00,
2013-08-02 18:55:00,71.7,54.2,29.92,West,273,0.0,0.0,54,0.00,FEW,,0.00,102.0,WeatherDisplay:10.37,2013-08-02 23:55:00,
2013-08-02 19:00:00,71.7,54.2,29.92,West,273,0.0,0.0,54,0.00,FEW,,0.00,102.0,WeatherDisplay:10.37,2013-08-03 00:00:00,
2013-08-02 19:05:00,69.2,55.6,29.93,NNE,19,0.0,0.0,62,0.00,CLR,,0.00,40.0,WeatherDisplay:10.37,2013-08-03 00:05:00,
2013-08-02 19:10:00,71.7,54.2,29.92,West,273,0.0,0.0,54,0.00,CLR,,0.00,102.0,WeatherDisplay:10.37,2013-08-03 00:10:00,
2013-08-02 19:15:00,68.4,55.7,29.93,NNE,19,0.0,0.0,64,0.00,CLR,,0.00,44.0,WeatherDisplay:10.37,2013-08-03 00:15:00,
2013-08-02 19:20:00,68.1,56.3,29.93,NNE,19,0.0,0.0,66,0.00,CLR,,0.00,53.0,WeatherDisplay:10.37,2013-08-03 00:20:00,
2013-08-02 19:25:00,67.8,57.3,29.93,NNE,19,0.0,0.0,69,0.00,CLR,,0.00,51.0,WeatherDisplay:10.37,2013-08-03 00:25:00,
2013-08-02 19:30:00,67.5,56.6,29.94,NNE,19,0.0,0.0,68,0.00,CLR,,0.00,42.0,WeatherDisplay:10.37,2013-08-03 00:30:00,
2013-08-02 19:36:00,71.7,54.2,29.92,West,273,0.0,0.0,54,0.00,CLR,,0.00,102.0,WeatherDisplay:10.37,2013-08-03 00:36:00,
2013-08-02 19:41:00,66.8,56.3,29.94,NNE,19,0.0,0.0,69,0.00,CLR,,0.00,12.0,WeatherDisplay:10.37,2013-08-03 00:41:00,
2013-08-02 19:46:00,66.5,56.8,29.94,NNE,19,0.0,0.0,71,0.00,CLR,,0.00,7.0,WeatherDisplay:10.37,2013-08-03 00:46:00,
2013-08-02 19:50:00,71.7,54.2,29.92,West,273,0.0,0.0,54,0.00,CLR,,0.00,102.0,WeatherDisplay:10.37,2013-08-03 00:50:00,
2013-08-02 19:56:00,65.9,57.0,29.94,NNE,19,0.0,0.0,73,0.00,CLR,,0.00,16.0,WeatherDisplay:10.37,2013-08-03 00:56:00,
2013-08-02 20:01:00,65.6,56.7,29.94,NNE,19,0.0,0.0,73,0.00,CLR,,0.00,14.0,WeatherDisplay:10.37,2013-08-03 01:01:00,
2013-08-02 20:05:00,65.1,56.2,29.94,NNE,19,0.0,0.0,73,0.00,CLR,,0.00,12.0,WeatherDisplay:10.37,2013-08-03 01:05:00,
2013-08-02 20:10:00,64.7,55.8,29.94,NNE,19,0.0,0.0,73,0.00,CLR,,0.00,12.0,WeatherDisplay:10.37,2013-08-03 01:10:00,
2013-08-02 20:16:00,65.8,57.3,29.94,NNE,19,0.0,0.0,74,0.00,CLR,,0.00,16.0,WeatherDisplay:10.37,2013-08-03 01:16:00,
2013-08-02 20:21:00,64.1,56.4,29.95,NNE,19,0.0,0.0,76,0.00,CLR,,0.00,7.0,WeatherDisplay:10.37,2013-08-03 01:21:00,
2013-08-02 20:26:00,63.7,56.4,29.95,NNE,19,0.0,0.0,77,0.00,CLR,,0.00,0.0,WeatherDisplay:10.37,2013-08-03 01:26:00,
2013-08-02 20:31:00,63.4,56.4,29.95,NNE,19,0.0,0.0,78,0.00,CLR,,0.00,0.0,WeatherDisplay:10.37,2013-08-03 01:31:00,
2013-08-02 20:36:00,62.7,56.1,29.95,NNE,19,0.0,0.0,79,0.00,CLR,,0.00,0.0,WeatherDisplay:10.37,2013-08-03 01:36:00,
2013-08-02 20:41:00,65.8,57.3,29.94,NNE,19,0.0,0.0,74,0.00,CLR,,0.00,16.0,WeatherDisplay:10.37,2013-08-03 01:41:00,
2013-08-02 20:46:00,61.3,55.4,29.95,NNE,19,0.0,0.0,81,0.00,CLR,,0.00,0.0,WeatherDisplay:10.37,2013-08-03 01:46:00,
2013-08-02 20:51:00,65.8,57.3,29.94,NNE,19,0.0,0.0,74,0.00,CLR,,0.00,0.0,WeatherDisplay:10.37,2013-08-03 01:51:00,
2013-08-02 20:56:00,65.8,57.3,29.94,NNE,19,0.0,0.0,74,0.00,CLR,,0.00,0.0,WeatherDisplay:10.37,2013-08-03 01:56:00,
2013-08-02 21:01:00,59.8,55.0,29.96,NNE,19,0.0,0.0,84,0.00,CLR,,0.00,0.0,WeatherDisplay:10.37,2013-08-03 02:01:00,
2013-08-02 21:06:00,59.6,55.1,29.96,NNE,19,0.0,0.0,85,0.00,CLR,,0.00,0.0,WeatherDisplay:10.37,2013-08-03 02:06:00,
2013-08-02 21:11:00,59.3,54.8,29.96,NNE,19,0.0,0.0,85,0.00,CLR,,0.00,0.0,WeatherDisplay:10.37,2013-08-03 02:11:00,
2013-08-02 21:16:00,58.8,54.6,29.97,NNE,19,0.0,0.0,86,0.00,CLR,,0.00,0.0,WeatherDisplay:10.37,2013-08-03 02:16:00,
2013-08-02 21:21:00,58.5,54.6,29.97,NNE,19,0.0,0.0,87,0.00,CLR,,0.00,0.0,WeatherDisplay:10.37,2013-08-03 02:21:00,
2013-08-02 21:26:00,59.3,54.8,29.96,NNE,19,0.0,0.0,85,0.00,CLR,,0.00,0.0,WeatherDisplay:10.37,2013-08-03 02:26:00,
2013-08-02 21:31:00,57.8,54.0,29.97,NNE,19,0.0,0.0,87,0.00,CLR,,0.00,0.0,WeatherDisplay:10.37,2013-08-03 02:31:00,
2013-08-02 21:36:00,57.8,54.3,29.97,NNE,19,0.0,0.0,88,0.00,CLR,,0.00,0.0,WeatherDisplay:10.37,2013-08-03 02:36:00,
2013-08-02 21:41:00,57.4,53.9,29.97,NNE,19,0.0,0.0,88,0.00,CLR,,0.00,0.0,WeatherDisplay:10.37,2013-08-03 02:41:00,
2013-08-02 21:46:00,56.9,53.4,29.98,NNE,19,0.0,0.0,88,0.00,CLR,,0.00,0.0,WeatherDisplay:10.37,2013-08-03 02:46:00,
2013-08-02 21:51:00,57.4,53.9,29.97,NNE,19,0.0,0.0,88,0.00,CLR,,0.00,0.0,WeatherDisplay:10.37,2013-08-03 02:51:00,
2013-08-02 21:57:00,57.4,53.9,29.97,NNE,19,0.0,0.0,88,0.00,CLR,,0.00,0.0,WeatherDisplay:10.37,2013-08-03 02:57:00,
2013-08-02 22:02:00,57.4,53.9,29.97,NNE,19,0.0,0.0,88,0.00,CLR,,0.00,0.0,WeatherDisplay:10.37,2013-08-03 03:02:00,
2013-08-02 22:07:00,57.4,53.9,29.97,NNE,19,0.0,0.0,88,0.00,BKN,,0.00,0.0,WeatherDisplay:10.37,2013-08-03 03:07:00,
2013-08-02 22:12:00,57.4,53.9,29.97,NNE,19,0.0,0.0,88,0.00,BKN,,0.00,0.0,WeatherDisplay:10.37,2013-08-03 03:12:00,
2013-08-02 22:17:00,55.4,52.5,29.98,NNE,19,0.0,0.0,90,0.00,BKN,,0.00,0.0,WeatherDisplay:10.37,2013-08-03 03:17:00,
2013-08-02 22:22:00,55.1,52.5,29.99,NNE,19,0.0,0.0,91,0.00,BKN,,0.00,0.0,WeatherDisplay:10.37,2013-08-03 03:22:00,
2013-08-02 22:27:00,54.9,52.3,29.99,NNE,19,0.0,0.0,91,0.00,BKN,,0.00,0.0,WeatherDisplay:10.37,2013-08-03 03:27:00,
2013-08-02 22:32:00,54.8,52.2,29.99,NNE,19,0.0,0.0,91,0.00,BKN,,0.00,0.0,WeatherDisplay:10.37,2013-08-03 03:32:00,
2013-08-02 22:37:00,54.6,52.0,29.99,NNE,19,0.0,0.0,91,0.00,BKN,,0.00,0.0,WeatherDisplay:10.37,2013-08-03 03:37:00,
2013-08-02 22:42:00,54.5,51.9,29.99,NNE,19,0.0,0.0,91,0.00,BKN,,0.00,0.0,WeatherDisplay:10.37,2013-08-03 03:42:00,
2013-08-02 22:47:00,54.9,52.3,29.99,NNE,19,0.0,0.0,91,0.00,BKN,,0.00,0.0,WeatherDisplay:10.37,2013-08-03 03:47:00,
2013-08-02 22:52:00,54.1,51.5,29.99,NNE,19,0.0,0.0,91,0.00,BKN,,0.00,0.0,WeatherDisplay:10.37,2013-08-03 03:52:00,
2013-08-02 22:57:00,54.9,52.3,29.99,NNE,19,0.0,0.0,91,0.00,BKN,,0.00,0.0,WeatherDisplay:10.37,2013-08-03 03:57:00,
2013-08-02 23:01:00,53.8,51.2,30.00,NNE,19,0.0,0.0,91,0.00,BKN,,0.00,0.0,WeatherDisplay:10.37,2013-08-03 04:01:00,
2013-08-02 23:02:00,53.7,51.1,30.00,NNE,19,0.0,0.0,91,0.00,BKN,,0.00,0.0,WeatherDisplay:10.37,2013-08-03 04:02:00,
2013-08-02 23:07:00,54.9,52.3,29.99,NNE,19,0.0,0.0,91,0.00,BKN,,0.00,0.0,WeatherDisplay:10.37,2013-08-03 04:07:00,
2013-08-02 23:12:00,54.9,52.3,29.99,NNE,19,0.0,0.0,91,0.00,BKN,,0.00,0.0,WeatherDisplay:10.37,2013-08-03 04:12:00,
2013-08-02 23:17:00,54.9,52.3,29.99,NNE,19,0.0,0.0,91,0.00,BKN,,0.00,0.0,WeatherDisplay:10.37,2013-08-03 04:17:00,
2013-08-02 23:22:00,54.9,52.3,29.99,NNE,19,0.0,0.0,91,0.00,BKN,,0.00,0.0,WeatherDisplay:10.37,2013-08-03 04:22:00,
2013-08-02 23:27:00,54.9,52.3,29.99,NNE,19,0.0,0.0,91,0.00,BKN,,0.00,0.0,WeatherDisplay:10.37,2013-08-03 04:27:00,
2013-08-02 23:32:00,53.2,51.2,30.01,NNE,19,0.0,0.0,93,0.00,BKN,,0.00,0.0,WeatherDisplay:10.37,2013-08-03 04:32:00,
2013-08-02 23:37:00,53.2,51.2,30.01,NNE,19,0.0,0.0,93,0.00,BKN,,0.00,0.0,WeatherDisplay:10.37,2013-08-03 04:37:00,
2013-08-02 23:42:00,54.9,52.3,29.99,NNE,19,0.0,0.0,91,0.00,BKN,,0.00,0.0,WeatherDisplay:10.37,2013-08-03 04:42:00,
2013-08-02 23:47:00,53.3,51.3,30.01,NNE,19,0.0,0.0,93,0.00,BKN,,0.00,0.0,WeatherDisplay:10.37,2013-08-03 04:47:00,
2013-08-02 23:52:00,53.3,51.3,30.01,NNE,19,0.0,0.0,93,0.00,BKN,,0.00,0.0,WeatherDisplay:10.37,2013-08-03 04:52:00,
2013-08-02 23:57:00,53.3,51.3,30.02,NNE,19,0.0,0.0,93,0.00,BKN,,0.00,0.0,WeatherDisplay:10.37,2013-08-03 04:57:00,